sensor_id;sensor_type;location;lat;lon;timestamp;P1;durP1;ratioP1;P2;durP2;ratioP2
18857;SDS011;9558;50.178;8.370;2022-08-19T00:00:49;20.77;;;11.73;;
18857;SDS011;9558;50.178;8.370;2022-08-19T00:03:16;17.50;;;10.88;;
18857;SDS011;9558;50.178;8.370;2022-08-19T00:05:43;15.48;;;10.68;;
18857;SDS011;9558;50.178;8.370;2022-08-19T00:08:09;15.85;;;10.55;;
18857;SDS011;9558;50.178;8.370;2022-08-19T00:10:37;17.00;;;11.07;;
18857;SDS011;9558;50.178;8.370;2022-08-19T00:13:04;17.20;;;10.85;;
18857;SDS011;9558;50.178;8.370;2022-08-19T00:15:30;18.83;;;11.75;;
18857;SDS011;9558;50.178;8.370;2022-08-19T00:17:57;18.67;;;11.43;;
18857;SDS011;9558;50.178;8.370;2022-08-19T00:20:23;16.55;;;11.18;;
18857;SDS011;9558;50.178;8.370;2022-08-19T00:25:17;16.08;;;10.50;;
18857;SDS011;9558;50.178;8.370;2022-08-19T00:27:45;15.88;;;10.23;;
18857;SDS011;9558;50.178;8.370;2022-08-19T00:30:12;17.92;;;11.05;;
18857;SDS011;9558;50.178;8.370;2022-08-19T00:32:39;19.40;;;11.00;;
18857;SDS011;9558;50.178;8.370;2022-08-19T00:35:06;21.63;;;10.77;;
18857;SDS011;9558;50.178;8.370;2022-08-19T00:37:34;17.42;;;11.15;;
18857;SDS011;9558;50.178;8.370;2022-08-19T00:40:04;18.40;;;11.82;;
18857;SDS011;9558;50.178;8.370;2022-08-19T00:42:31;19.50;;;11.90;;
18857;SDS011;9558;50.178;8.370;2022-08-19T00:45:00;18.70;;;11.85;;
18857;SDS011;9558;50.178;8.370;2022-08-19T00:47:26;17.65;;;11.63;;
18857;SDS011;9558;50.178;8.370;2022-08-19T00:49:54;21.00;;;11.95;;
18857;SDS011;9558;50.178;8.370;2022-08-19T00:52:24;18.73;;;11.98;;
18857;SDS011;9558;50.178;8.370;2022-08-19T00:54:55;20.88;;;13.55;;
18857;SDS011;9558;50.178;8.370;2022-08-19T00:57:25;17.63;;;12.07;;
18857;SDS011;9558;50.178;8.370;2022-08-19T00:59:54;19.70;;;12.88;;
18857;SDS011;9558;50.178;8.370;2022-08-19T01:02:23;25.35;;;13.18;;
18857;SDS011;9558;50.178;8.370;2022-08-19T01:04:51;21.75;;;12.95;;
18857;SDS011;9558;50.178;8.370;2022-08-19T01:07:17;19.88;;;12.82;;
18857;SDS011;9558;50.178;8.370;2022-08-19T01:09:44;23.33;;;13.05;;
18857;SDS011;9558;50.178;8.370;2022-08-19T01:14:38;22.05;;;12.27;;
18857;SDS011;9558;50.178;8.370;2022-08-19T01:17:06;21.55;;;13.38;;
18857;SDS011;9558;50.178;8.370;2022-08-19T01:19:36;21.45;;;13.70;;
18857;SDS011;9558;50.178;8.370;2022-08-19T01:22:06;22.92;;;14.25;;
18857;SDS011;9558;50.178;8.370;2022-08-19T01:24:38;21.77;;;13.57;;
18857;SDS011;9558;50.178;8.370;2022-08-19T01:27:05;20.15;;;12.45;;
18857;SDS011;9558;50.178;8.370;2022-08-19T01:29:33;24.25;;;13.88;;
18857;SDS011;9558;50.178;8.370;2022-08-19T01:32:03;20.48;;;13.30;;
18857;SDS011;9558;50.178;8.370;2022-08-19T01:34:29;23.90;;;13.50;;
18857;SDS011;9558;50.178;8.370;2022-08-19T01:36:59;23.63;;;13.73;;
18857;SDS011;9558;50.178;8.370;2022-08-19T01:39:27;22.80;;;13.63;;
18857;SDS011;9558;50.178;8.370;2022-08-19T01:41:55;21.95;;;13.90;;
18857;SDS011;9558;50.178;8.370;2022-08-19T01:44:22;26.42;;;14.85;;
18857;SDS011;9558;50.178;8.370;2022-08-19T01:46:50;23.27;;;15.38;;
18857;SDS011;9558;50.178;8.370;2022-08-19T01:49:18;25.65;;;16.00;;
18857;SDS011;9558;50.178;8.370;2022-08-19T01:51:47;24.38;;;15.63;;
18857;SDS011;9558;50.178;8.370;2022-08-19T01:54:15;23.95;;;14.52;;
18857;SDS011;9558;50.178;8.370;2022-08-19T01:56:44;27.30;;;15.40;;
18857;SDS011;9558;50.178;8.370;2022-08-19T01:59:13;27.67;;;16.30;;
18857;SDS011;9558;50.178;8.370;2022-08-19T02:01:41;25.63;;;16.00;;
18857;SDS011;9558;50.178;8.370;2022-08-19T02:04:07;28.48;;;16.70;;
18857;SDS011;9558;50.178;8.370;2022-08-19T02:06:34;28.38;;;16.85;;
18857;SDS011;9558;50.178;8.370;2022-08-19T02:09:01;27.17;;;16.02;;
18857;SDS011;9558;50.178;8.370;2022-08-19T02:11:29;30.83;;;16.92;;
18857;SDS011;9558;50.178;8.370;2022-08-19T02:14:00;27.50;;;17.23;;
18857;SDS011;9558;50.178;8.370;2022-08-19T02:16:29;30.20;;;18.23;;
18857;SDS011;9558;50.178;8.370;2022-08-19T02:18:56;29.08;;;17.33;;
18857;SDS011;9558;50.178;8.370;2022-08-19T02:21:25;28.42;;;17.58;;
18857;SDS011;9558;50.178;8.370;2022-08-19T02:23:53;30.90;;;17.80;;
18857;SDS011;9558;50.178;8.370;2022-08-19T02:26:20;28.60;;;17.50;;
18857;SDS011;9558;50.178;8.370;2022-08-19T02:31:15;29.75;;;17.75;;
18857;SDS011;9558;50.178;8.370;2022-08-19T02:33:45;29.95;;;18.08;;
18857;SDS011;9558;50.178;8.370;2022-08-19T02:36:12;27.38;;;16.70;;
18857;SDS011;9558;50.178;8.370;2022-08-19T02:38:41;28.85;;;16.88;;
18857;SDS011;9558;50.178;8.370;2022-08-19T02:41:11;29.95;;;17.20;;
18857;SDS011;9558;50.178;8.370;2022-08-19T02:43:40;27.25;;;17.67;;
18857;SDS011;9558;50.178;8.370;2022-08-19T02:46:13;30.25;;;17.45;;
18857;SDS011;9558;50.178;8.370;2022-08-19T02:48:44;28.33;;;17.25;;
18857;SDS011;9558;50.178;8.370;2022-08-19T02:51:15;28.10;;;17.02;;
18857;SDS011;9558;50.178;8.370;2022-08-19T02:53:42;26.83;;;15.77;;
18857;SDS011;9558;50.178;8.370;2022-08-19T02:56:09;28.58;;;17.67;;
18857;SDS011;9558;50.178;8.370;2022-08-19T02:58:35;27.75;;;16.02;;
18857;SDS011;9558;50.178;8.370;2022-08-19T03:01:02;26.73;;;16.88;;
18857;SDS011;9558;50.178;8.370;2022-08-19T03:03:29;27.50;;;16.10;;
18857;SDS011;9558;50.178;8.370;2022-08-19T03:06:08;30.35;;;17.38;;
18857;SDS011;9558;50.178;8.370;2022-08-19T03:08:36;27.23;;;16.20;;
18857;SDS011;9558;50.178;8.370;2022-08-19T03:11:05;21.75;;;14.25;;
18857;SDS011;9558;50.178;8.370;2022-08-19T03:13:32;26.42;;;16.20;;
18857;SDS011;9558;50.178;8.370;2022-08-19T03:15:59;24.08;;;15.32;;
18857;SDS011;9558;50.178;8.370;2022-08-19T03:18:25;24.10;;;14.98;;
18857;SDS011;9558;50.178;8.370;2022-08-19T03:20:52;24.30;;;15.70;;
18857;SDS011;9558;50.178;8.370;2022-08-19T03:23:21;24.92;;;15.45;;
18857;SDS011;9558;50.178;8.370;2022-08-19T03:25:49;24.55;;;15.80;;
18857;SDS011;9558;50.178;8.370;2022-08-19T03:28:19;27.38;;;16.10;;
18857;SDS011;9558;50.178;8.370;2022-08-19T03:30:56;24.05;;;15.30;;
18857;SDS011;9558;50.178;8.370;2022-08-19T03:33:25;25.77;;;16.38;;
18857;SDS011;9558;50.178;8.370;2022-08-19T03:35:59;25.60;;;16.30;;
18857;SDS011;9558;50.178;8.370;2022-08-19T03:38:28;28.88;;;16.38;;
18857;SDS011;9558;50.178;8.370;2022-08-19T03:40:57;26.25;;;16.20;;
18857;SDS011;9558;50.178;8.370;2022-08-19T03:43:24;24.13;;;16.42;;
18857;SDS011;9558;50.178;8.370;2022-08-19T03:45:59;23.77;;;15.93;;
18857;SDS011;9558;50.178;8.370;2022-08-19T03:48:27;30.85;;;16.58;;
18857;SDS011;9558;50.178;8.370;2022-08-19T03:50:56;26.48;;;16.83;;
18857;SDS011;9558;50.178;8.370;2022-08-19T03:53:24;25.25;;;15.90;;
18857;SDS011;9558;50.178;8.370;2022-08-19T03:55:52;28.23;;;17.25;;
18857;SDS011;9558;50.178;8.370;2022-08-19T03:58:19;28.20;;;17.38;;
18857;SDS011;9558;50.178;8.370;2022-08-19T04:00:46;28.13;;;17.25;;
18857;SDS011;9558;50.178;8.370;2022-08-19T04:03:12;27.10;;;16.95;;
18857;SDS011;9558;50.178;8.370;2022-08-19T04:05:39;28.45;;;16.50;;
18857;SDS011;9558;50.178;8.370;2022-08-19T04:08:06;30.98;;;18.48;;
18857;SDS011;9558;50.178;8.370;2022-08-19T04:10:34;30.08;;;17.42;;
18857;SDS011;9558;50.178;8.370;2022-08-19T04:13:03;30.33;;;17.52;;
18857;SDS011;9558;50.178;8.370;2022-08-19T04:15:32;28.25;;;17.20;;
18857;SDS011;9558;50.178;8.370;2022-08-19T04:18:04;32.05;;;17.70;;
18857;SDS011;9558;50.178;8.370;2022-08-19T04:20:32;28.50;;;18.42;;
18857;SDS011;9558;50.178;8.370;2022-08-19T04:22:59;29.42;;;17.63;;
18857;SDS011;9558;50.178;8.370;2022-08-19T04:25:25;28.17;;;17.27;;
18857;SDS011;9558;50.178;8.370;2022-08-19T04:27:52;32.80;;;18.30;;
18857;SDS011;9558;50.178;8.370;2022-08-19T04:30:20;30.02;;;17.95;;
18857;SDS011;9558;50.178;8.370;2022-08-19T04:32:47;28.20;;;17.38;;
18857;SDS011;9558;50.178;8.370;2022-08-19T04:35:15;29.55;;;17.63;;
18857;SDS011;9558;50.178;8.370;2022-08-19T04:37:42;30.00;;;18.67;;
18857;SDS011;9558;50.178;8.370;2022-08-19T04:40:09;27.48;;;17.13;;
18857;SDS011;9558;50.178;8.370;2022-08-19T04:42:59;28.48;;;17.20;;
18857;SDS011;9558;50.178;8.370;2022-08-19T04:45:27;27.52;;;16.92;;
18857;SDS011;9558;50.178;8.370;2022-08-19T04:47:54;26.48;;;16.23;;
18857;SDS011;9558;50.178;8.370;2022-08-19T04:50:22;27.95;;;17.15;;
18857;SDS011;9558;50.178;8.370;2022-08-19T04:52:49;29.00;;;16.55;;
18857;SDS011;9558;50.178;8.370;2022-08-19T04:55:16;28.75;;;16.50;;
18857;SDS011;9558;50.178;8.370;2022-08-19T04:57:43;28.80;;;17.17;;
18857;SDS011;9558;50.178;8.370;2022-08-19T05:00:10;31.13;;;17.45;;
18857;SDS011;9558;50.178;8.370;2022-08-19T05:02:38;27.77;;;17.17;;
18857;SDS011;9558;50.178;8.370;2022-08-19T05:05:05;28.02;;;16.55;;
18857;SDS011;9558;50.178;8.370;2022-08-19T05:09:59;25.05;;;15.13;;
18857;SDS011;9558;50.178;8.370;2022-08-19T05:12:25;28.02;;;16.35;;
18857;SDS011;9558;50.178;8.370;2022-08-19T05:14:53;25.45;;;17.17;;
18857;SDS011;9558;50.178;8.370;2022-08-19T05:17:21;27.95;;;17.33;;
18857;SDS011;9558;50.178;8.370;2022-08-19T05:19:49;30.45;;;17.80;;
18857;SDS011;9558;50.178;8.370;2022-08-19T05:22:33;25.63;;;16.83;;
18857;SDS011;9558;50.178;8.370;2022-08-19T05:25:02;26.13;;;16.83;;
18857;SDS011;9558;50.178;8.370;2022-08-19T05:27:31;25.05;;;16.27;;
18857;SDS011;9558;50.178;8.370;2022-08-19T05:32:24;25.65;;;15.57;;
18857;SDS011;9558;50.178;8.370;2022-08-19T05:34:52;26.42;;;15.98;;
18857;SDS011;9558;50.178;8.370;2022-08-19T05:37:19;32.50;;;16.80;;
18857;SDS011;9558;50.178;8.370;2022-08-19T05:39:46;25.38;;;16.65;;
18857;SDS011;9558;50.178;8.370;2022-08-19T05:42:14;26.75;;;16.65;;
18857;SDS011;9558;50.178;8.370;2022-08-19T05:44:42;25.70;;;15.52;;
18857;SDS011;9558;50.178;8.370;2022-08-19T05:47:10;25.55;;;16.33;;
18857;SDS011;9558;50.178;8.370;2022-08-19T05:49:39;22.13;;;14.50;;
18857;SDS011;9558;50.178;8.370;2022-08-19T05:52:09;23.00;;;15.07;;
18857;SDS011;9558;50.178;8.370;2022-08-19T05:54:40;24.17;;;15.70;;
18857;SDS011;9558;50.178;8.370;2022-08-19T05:57:08;26.63;;;15.20;;
18857;SDS011;9558;50.178;8.370;2022-08-19T05:59:35;26.42;;;15.50;;
18857;SDS011;9558;50.178;8.370;2022-08-19T06:02:02;24.67;;;13.95;;
18857;SDS011;9558;50.178;8.370;2022-08-19T06:04:31;22.42;;;14.05;;
18857;SDS011;9558;50.178;8.370;2022-08-19T06:06:58;24.75;;;13.95;;
18857;SDS011;9558;50.178;8.370;2022-08-19T06:09:28;20.98;;;14.20;;
18857;SDS011;9558;50.178;8.370;2022-08-19T06:11:55;21.67;;;14.15;;
18857;SDS011;9558;50.178;8.370;2022-08-19T06:14:25;22.08;;;15.48;;
18857;SDS011;9558;50.178;8.370;2022-08-19T06:16:53;22.92;;;13.02;;
18857;SDS011;9558;50.178;8.370;2022-08-19T06:19:20;23.00;;;13.73;;
18857;SDS011;9558;50.178;8.370;2022-08-19T06:21:50;19.23;;;13.23;;
18857;SDS011;9558;50.178;8.370;2022-08-19T06:24:18;21.85;;;14.95;;
18857;SDS011;9558;50.178;8.370;2022-08-19T06:26:51;24.40;;;14.57;;
18857;SDS011;9558;50.178;8.370;2022-08-19T06:29:20;23.17;;;14.93;;
18857;SDS011;9558;50.178;8.370;2022-08-19T06:31:50;21.67;;;14.65;;
18857;SDS011;9558;50.178;8.370;2022-08-19T06:34:19;24.38;;;14.43;;
18857;SDS011;9558;50.178;8.370;2022-08-19T06:36:47;21.63;;;13.80;;
18857;SDS011;9558;50.178;8.370;2022-08-19T06:39:18;18.50;;;13.75;;
18857;SDS011;9558;50.178;8.370;2022-08-19T06:41:49;21.13;;;12.80;;
18857;SDS011;9558;50.178;8.370;2022-08-19T06:44:19;19.73;;;13.07;;
18857;SDS011;9558;50.178;8.370;2022-08-19T06:46:48;18.60;;;12.15;;
18857;SDS011;9558;50.178;8.370;2022-08-19T06:49:15;18.42;;;12.10;;
18857;SDS011;9558;50.178;8.370;2022-08-19T06:51:43;20.13;;;12.10;;
18857;SDS011;9558;50.178;8.370;2022-08-19T06:54:12;17.63;;;11.35;;
18857;SDS011;9558;50.178;8.370;2022-08-19T06:56:39;17.25;;;12.63;;
18857;SDS011;9558;50.178;8.370;2022-08-19T06:59:10;18.70;;;11.93;;
18857;SDS011;9558;50.178;8.370;2022-08-19T07:01:39;14.88;;;10.75;;
18857;SDS011;9558;50.178;8.370;2022-08-19T07:04:08;15.73;;;11.52;;
18857;SDS011;9558;50.178;8.370;2022-08-19T07:06:35;14.35;;;10.75;;
18857;SDS011;9558;50.178;8.370;2022-08-19T07:09:03;12.88;;;9.23;;
18857;SDS011;9558;50.178;8.370;2022-08-19T07:11:31;19.02;;;11.48;;
18857;SDS011;9558;50.178;8.370;2022-08-19T07:13:58;17.98;;;9.95;;
18857;SDS011;9558;50.178;8.370;2022-08-19T07:16:29;14.38;;;10.00;;
18857;SDS011;9558;50.178;8.370;2022-08-19T07:18:56;14.20;;;9.95;;
18857;SDS011;9558;50.178;8.370;2022-08-19T07:21:23;15.48;;;9.60;;
18857;SDS011;9558;50.178;8.370;2022-08-19T07:23:53;11.85;;;9.00;;
18857;SDS011;9558;50.178;8.370;2022-08-19T07:26:22;12.77;;;8.38;;
18857;SDS011;9558;50.178;8.370;2022-08-19T07:28:50;13.10;;;8.43;;
18857;SDS011;9558;50.178;8.370;2022-08-19T07:31:18;10.38;;;8.10;;
18857;SDS011;9558;50.178;8.370;2022-08-19T07:33:49;13.35;;;8.90;;
18857;SDS011;9558;50.178;8.370;2022-08-19T07:36:18;15.20;;;8.65;;
18857;SDS011;9558;50.178;8.370;2022-08-19T07:38:57;11.68;;;7.88;;
18857;SDS011;9558;50.178;8.370;2022-08-19T07:41:27;11.63;;;8.20;;
18857;SDS011;9558;50.178;8.370;2022-08-19T07:43:56;11.70;;;8.68;;
18857;SDS011;9558;50.178;8.370;2022-08-19T07:46:23;10.32;;;7.65;;
18857;SDS011;9558;50.178;8.370;2022-08-19T07:48:53;12.10;;;8.55;;
18857;SDS011;9558;50.178;8.370;2022-08-19T07:51:20;12.05;;;8.00;;
18857;SDS011;9558;50.178;8.370;2022-08-19T07:53:47;12.75;;;9.05;;
18857;SDS011;9558;50.178;8.370;2022-08-19T07:56:15;12.50;;;9.82;;
18857;SDS011;9558;50.178;8.370;2022-08-19T07:58:43;13.18;;;8.50;;
18857;SDS011;9558;50.178;8.370;2022-08-19T08:01:12;13.00;;;8.43;;
18857;SDS011;9558;50.178;8.370;2022-08-19T08:03:41;13.77;;;9.52;;
18857;SDS011;9558;50.178;8.370;2022-08-19T08:06:27;12.20;;;8.70;;
18857;SDS011;9558;50.178;8.370;2022-08-19T08:11:44;11.35;;;8.68;;
18857;SDS011;9558;50.178;8.370;2022-08-19T08:14:14;12.35;;;8.43;;
18857;SDS011;9558;50.178;8.370;2022-08-19T08:16:41;12.07;;;8.50;;
18857;SDS011;9558;50.178;8.370;2022-08-19T08:19:09;14.65;;;8.38;;
18857;SDS011;9558;50.178;8.370;2022-08-19T08:21:37;14.68;;;9.05;;
18857;SDS011;9558;50.178;8.370;2022-08-19T08:24:04;11.65;;;9.10;;
18857;SDS011;9558;50.178;8.370;2022-08-19T08:26:30;12.98;;;9.43;;
18857;SDS011;9558;50.178;8.370;2022-08-19T08:28:57;11.20;;;8.60;;
18857;SDS011;9558;50.178;8.370;2022-08-19T08:31:24;14.52;;;11.05;;
18857;SDS011;9558;50.178;8.370;2022-08-19T08:36:17;18.77;;;11.63;;
18857;SDS011;9558;50.178;8.370;2022-08-19T08:38:45;15.73;;;11.48;;
18857;SDS011;9558;50.178;8.370;2022-08-19T08:41:14;20.00;;;12.35;;
18857;SDS011;9558;50.178;8.370;2022-08-19T08:43:46;21.48;;;14.75;;
18857;SDS011;9558;50.178;8.370;2022-08-19T08:46:17;18.63;;;15.05;;
18857;SDS011;9558;50.178;8.370;2022-08-19T08:48:51;21.48;;;12.18;;
18857;SDS011;9558;50.178;8.370;2022-08-19T08:51:22;22.23;;;14.50;;
18857;SDS011;9558;50.178;8.370;2022-08-19T08:53:54;18.27;;;12.38;;
18857;SDS011;9558;50.178;8.370;2022-08-19T08:56:22;16.90;;;12.13;;
18857;SDS011;9558;50.178;8.370;2022-08-19T09:01:20;19.85;;;12.45;;
18857;SDS011;9558;50.178;8.370;2022-08-19T09:03:47;20.65;;;14.23;;
18857;SDS011;9558;50.178;8.370;2022-08-19T09:06:17;18.77;;;13.20;;
18857;SDS011;9558;50.178;8.370;2022-08-19T09:08:57;21.80;;;12.52;;
18857;SDS011;9558;50.178;8.370;2022-08-19T09:11:32;18.95;;;12.57;;
18857;SDS011;9558;50.178;8.370;2022-08-19T09:14:11;20.90;;;13.80;;
18857;SDS011;9558;50.178;8.370;2022-08-19T09:16:46;16.63;;;13.45;;
18857;SDS011;9558;50.178;8.370;2022-08-19T09:19:13;17.30;;;12.95;;
18857;SDS011;9558;50.178;8.370;2022-08-19T09:21:40;22.73;;;14.52;;
18857;SDS011;9558;50.178;8.370;2022-08-19T09:26:35;21.55;;;13.50;;
18857;SDS011;9558;50.178;8.370;2022-08-19T09:29:02;18.48;;;13.35;;
18857;SDS011;9558;50.178;8.370;2022-08-19T09:31:31;15.95;;;12.00;;
18857;SDS011;9558;50.178;8.370;2022-08-19T09:33:58;17.60;;;12.70;;
18857;SDS011;9558;50.178;8.370;2022-08-19T09:36:26;13.40;;;10.90;;
18857;SDS011;9558;50.178;8.370;2022-08-19T09:38:57;19.75;;;12.45;;
18857;SDS011;9558;50.178;8.370;2022-08-19T09:41:26;16.30;;;12.25;;
18857;SDS011;9558;50.178;8.370;2022-08-19T09:43:53;17.00;;;12.45;;
18857;SDS011;9558;50.178;8.370;2022-08-19T09:46:24;19.67;;;12.13;;
18857;SDS011;9558;50.178;8.370;2022-08-19T09:48:52;17.52;;;13.35;;
18857;SDS011;9558;50.178;8.370;2022-08-19T09:51:21;19.77;;;14.70;;
18857;SDS011;9558;50.178;8.370;2022-08-19T09:53:50;18.60;;;12.60;;
18857;SDS011;9558;50.178;8.370;2022-08-19T09:56:19;17.10;;;12.98;;
18857;SDS011;9558;50.178;8.370;2022-08-19T09:58:48;18.27;;;14.23;;
18857;SDS011;9558;50.178;8.370;2022-08-19T10:01:16;16.85;;;13.52;;
18857;SDS011;9558;50.178;8.370;2022-08-19T10:03:46;15.52;;;12.55;;
18857;SDS011;9558;50.178;8.370;2022-08-19T10:06:14;17.63;;;12.07;;
18857;SDS011;9558;50.178;8.370;2022-08-19T10:08:41;17.98;;;14.55;;
18857;SDS011;9558;50.178;8.370;2022-08-19T10:11:08;18.88;;;14.50;;
18857;SDS011;9558;50.178;8.370;2022-08-19T10:13:36;21.65;;;15.77;;
18857;SDS011;9558;50.178;8.370;2022-08-19T10:16:05;16.90;;;13.13;;
18857;SDS011;9558;50.178;8.370;2022-08-19T10:18:33;15.55;;;13.70;;
18857;SDS011;9558;50.178;8.370;2022-08-19T10:21:05;18.95;;;14.50;;
18857;SDS011;9558;50.178;8.370;2022-08-19T10:23:34;23.23;;;16.08;;
18857;SDS011;9558;50.178;8.370;2022-08-19T10:26:02;17.52;;;13.85;;
18857;SDS011;9558;50.178;8.370;2022-08-19T10:28:31;19.95;;;14.75;;
18857;SDS011;9558;50.178;8.370;2022-08-19T10:31:02;17.05;;;12.68;;
18857;SDS011;9558;50.178;8.370;2022-08-19T10:33:32;16.20;;;12.02;;
18857;SDS011;9558;50.178;8.370;2022-08-19T10:35:59;15.63;;;13.15;;
18857;SDS011;9558;50.178;8.370;2022-08-19T10:38:27;14.60;;;11.88;;
18857;SDS011;9558;50.178;8.370;2022-08-19T10:40:55;15.82;;;12.10;;
18857;SDS011;9558;50.178;8.370;2022-08-19T10:43:21;15.43;;;10.52;;
18857;SDS011;9558;50.178;8.370;2022-08-19T10:45:51;13.95;;;11.32;;
18857;SDS011;9558;50.178;8.370;2022-08-19T10:48:20;13.73;;;10.85;;
18857;SDS011;9558;50.178;8.370;2022-08-19T10:50:46;14.35;;;10.80;;
18857;SDS011;9558;50.178;8.370;2022-08-19T10:53:30;12.05;;;9.73;;
18857;SDS011;9558;50.178;8.370;2022-08-19T10:58:41;12.38;;;9.60;;
18857;SDS011;9558;50.178;8.370;2022-08-19T11:01:08;14.02;;;10.60;;
18857;SDS011;9558;50.178;8.370;2022-08-19T11:06:03;13.07;;;9.23;;
18857;SDS011;9558;50.178;8.370;2022-08-19T11:08:32;9.50;;;8.50;;
18857;SDS011;9558;50.178;8.370;2022-08-19T11:11:00;12.38;;;9.18;;
18857;SDS011;9558;50.178;8.370;2022-08-19T11:13:28;10.20;;;8.93;;
18857;SDS011;9558;50.178;8.370;2022-08-19T11:15:56;11.52;;;8.77;;
18857;SDS011;9558;50.178;8.370;2022-08-19T11:18:23;12.77;;;9.23;;
18857;SDS011;9558;50.178;8.370;2022-08-19T11:20:52;11.77;;;7.65;;
18857;SDS011;9558;50.178;8.370;2022-08-19T11:23:19;9.70;;;7.20;;
18857;SDS011;9558;50.178;8.370;2022-08-19T11:25:46;7.25;;;5.82;;
18857;SDS011;9558;50.178;8.370;2022-08-19T11:30:40;9.23;;;5.80;;
18857;SDS011;9558;50.178;8.370;2022-08-19T11:33:06;7.60;;;5.03;;
18857;SDS011;9558;50.178;8.370;2022-08-19T11:35:38;5.57;;;4.95;;
18857;SDS011;9558;50.178;8.370;2022-08-19T11:38:06;7.45;;;5.80;;
18857;SDS011;9558;50.178;8.370;2022-08-19T11:40:33;6.88;;;5.53;;
18857;SDS011;9558;50.178;8.370;2022-08-19T11:45:26;8.02;;;6.15;;
18857;SDS011;9558;50.178;8.370;2022-08-19T11:47:54;7.03;;;6.22;;
18857;SDS011;9558;50.178;8.370;2022-08-19T11:50:21;7.50;;;5.60;;
18857;SDS011;9558;50.178;8.370;2022-08-19T11:52:49;6.00;;;5.40;;
18857;SDS011;9558;50.178;8.370;2022-08-19T11:55:17;5.40;;;4.90;;
18857;SDS011;9558;50.178;8.370;2022-08-19T11:57:44;6.97;;;5.10;;
18857;SDS011;9558;50.178;8.370;2022-08-19T12:00:12;7.80;;;5.38;;
18857;SDS011;9558;50.178;8.370;2022-08-19T12:02:39;7.57;;;5.40;;
18857;SDS011;9558;50.178;8.370;2022-08-19T12:05:07;6.60;;;4.55;;
18857;SDS011;9558;50.178;8.370;2022-08-19T12:07:34;8.57;;;4.68;;
18857;SDS011;9558;50.178;8.370;2022-08-19T12:10:01;7.05;;;4.43;;
18857;SDS011;9558;50.178;8.370;2022-08-19T12:12:29;6.28;;;5.10;;
18857;SDS011;9558;50.178;8.370;2022-08-19T12:14:56;7.13;;;4.93;;
18857;SDS011;9558;50.178;8.370;2022-08-19T12:17:23;5.15;;;4.22;;
18857;SDS011;9558;50.178;8.370;2022-08-19T12:19:51;5.30;;;4.80;;
18857;SDS011;9558;50.178;8.370;2022-08-19T12:22:18;5.35;;;4.53;;
18857;SDS011;9558;50.178;8.370;2022-08-19T12:24:45;5.18;;;4.00;;
18857;SDS011;9558;50.178;8.370;2022-08-19T12:27:12;5.38;;;3.90;;
18857;SDS011;9558;50.178;8.370;2022-08-19T12:29:40;4.38;;;3.88;;
18857;SDS011;9558;50.178;8.370;2022-08-19T12:32:07;4.93;;;3.90;;
18857;SDS011;9558;50.178;8.370;2022-08-19T12:34:34;5.13;;;3.90;;
18857;SDS011;9558;50.178;8.370;2022-08-19T12:37:02;4.18;;;3.78;;
18857;SDS011;9558;50.178;8.370;2022-08-19T12:39:33;5.95;;;4.00;;
18857;SDS011;9558;50.178;8.370;2022-08-19T12:42:00;3.22;;;2.88;;
18857;SDS011;9558;50.178;8.370;2022-08-19T12:44:27;4.07;;;3.20;;
18857;SDS011;9558;50.178;8.370;2022-08-19T12:46:56;3.40;;;3.20;;
18857;SDS011;9558;50.178;8.370;2022-08-19T12:49:23;7.07;;;3.40;;
18857;SDS011;9558;50.178;8.370;2022-08-19T12:51:50;6.10;;;3.22;;
18857;SDS011;9558;50.178;8.370;2022-08-19T12:54:17;4.05;;;3.42;;
18857;SDS011;9558;50.178;8.370;2022-08-19T12:59:10;5.85;;;3.40;;
18857;SDS011;9558;50.178;8.370;2022-08-19T13:04:05;4.43;;;3.80;;
18857;SDS011;9558;50.178;8.370;2022-08-19T13:06:31;4.15;;;3.40;;
18857;SDS011;9558;50.178;8.370;2022-08-19T13:11:24;4.15;;;3.67;;
18857;SDS011;9558;50.178;8.370;2022-08-19T13:13:51;4.63;;;3.70;;
18857;SDS011;9558;50.178;8.370;2022-08-19T13:16:20;4.95;;;3.60;;
18857;SDS011;9558;50.178;8.370;2022-08-19T13:18:47;4.65;;;2.72;;
18857;SDS011;9558;50.178;8.370;2022-08-19T13:21:15;6.18;;;3.45;;
18857;SDS011;9558;50.178;8.370;2022-08-19T13:23:44;4.72;;;3.53;;
18857;SDS011;9558;50.178;8.370;2022-08-19T13:26:12;3.72;;;3.40;;
18857;SDS011;9558;50.178;8.370;2022-08-19T13:28:39;3.60;;;3.30;;
18857;SDS011;9558;50.178;8.370;2022-08-19T13:31:26;4.88;;;3.30;;
18857;SDS011;9558;50.178;8.370;2022-08-19T13:34:11;3.95;;;3.53;;
18857;SDS011;9558;50.178;8.370;2022-08-19T13:36:40;4.82;;;3.22;;
18857;SDS011;9558;50.178;8.370;2022-08-19T13:39:07;4.05;;;3.15;;
18857;SDS011;9558;50.178;8.370;2022-08-19T13:41:35;4.22;;;3.78;;
18857;SDS011;9558;50.178;8.370;2022-08-19T13:44:02;4.22;;;3.90;;
18857;SDS011;9558;50.178;8.370;2022-08-19T13:46:31;7.35;;;3.47;;
18857;SDS011;9558;50.178;8.370;2022-08-19T13:51:24;4.30;;;3.72;;
18857;SDS011;9558;50.178;8.370;2022-08-19T13:53:52;4.47;;;3.88;;
18857;SDS011;9558;50.178;8.370;2022-08-19T13:56:20;5.57;;;4.20;;
18857;SDS011;9558;50.178;8.370;2022-08-19T13:58:47;4.45;;;4.05;;
18857;SDS011;9558;50.178;8.370;2022-08-19T14:01:18;7.88;;;3.60;;
18857;SDS011;9558;50.178;8.370;2022-08-19T14:03:46;3.42;;;3.13;;
18857;SDS011;9558;50.178;8.370;2022-08-19T14:06:12;3.90;;;3.50;;
18857;SDS011;9558;50.178;8.370;2022-08-19T14:08:39;3.88;;;3.33;;
18857;SDS011;9558;50.178;8.370;2022-08-19T14:11:08;5.65;;;3.30;;
18857;SDS011;9558;50.178;8.370;2022-08-19T14:13:35;5.35;;;3.60;;
18857;SDS011;9558;50.178;8.370;2022-08-19T14:16:06;3.92;;;3.63;;
18857;SDS011;9558;50.178;8.370;2022-08-19T14:18:33;5.03;;;3.88;;
18857;SDS011;9558;50.178;8.370;2022-08-19T14:21:00;3.78;;;3.47;;
18857;SDS011;9558;50.178;8.370;2022-08-19T14:23:28;5.60;;;3.30;;
18857;SDS011;9558;50.178;8.370;2022-08-19T14:26:02;5.55;;;3.58;;
18857;SDS011;9558;50.178;8.370;2022-08-19T14:28:31;11.18;;;3.50;;
18857;SDS011;9558;50.178;8.370;2022-08-19T14:30:57;3.67;;;3.13;;
18857;SDS011;9558;50.178;8.370;2022-08-19T14:33:24;3.50;;;3.20;;
18857;SDS011;9558;50.178;8.370;2022-08-19T14:35:51;3.75;;;3.42;;
18857;SDS011;9558;50.178;8.370;2022-08-19T14:40:44;3.10;;;2.90;;
18857;SDS011;9558;50.178;8.370;2022-08-19T14:43:11;4.00;;;3.70;;
18857;SDS011;9558;50.178;8.370;2022-08-19T14:45:40;6.05;;;3.80;;
18857;SDS011;9558;50.178;8.370;2022-08-19T14:48:08;3.70;;;3.40;;
18857;SDS011;9558;50.178;8.370;2022-08-19T14:50:35;4.53;;;4.13;;
18857;SDS011;9558;50.178;8.370;2022-08-19T14:53:03;3.80;;;3.50;;
18857;SDS011;9558;50.178;8.370;2022-08-19T14:55:32;4.53;;;3.30;;
18857;SDS011;9558;50.178;8.370;2022-08-19T14:57:59;4.38;;;2.47;;
18857;SDS011;9558;50.178;8.370;2022-08-19T15:00:26;2.47;;;2.17;;
18857;SDS011;9558;50.178;8.370;2022-08-19T15:02:54;2.85;;;2.50;;
18857;SDS011;9558;50.178;8.370;2022-08-19T15:05:21;11.45;;;2.70;;
18857;SDS011;9558;50.178;8.370;2022-08-19T15:07:48;3.20;;;2.72;;
18857;SDS011;9558;50.178;8.370;2022-08-19T15:10:15;3.42;;;2.40;;
18857;SDS011;9558;50.178;8.370;2022-08-19T15:12:42;3.70;;;3.00;;
18857;SDS011;9558;50.178;8.370;2022-08-19T15:15:10;4.90;;;3.00;;
18857;SDS011;9558;50.178;8.370;2022-08-19T15:17:40;7.18;;;3.40;;
18857;SDS011;9558;50.178;8.370;2022-08-19T15:20:10;3.05;;;2.75;;
18857;SDS011;9558;50.178;8.370;2022-08-19T15:22:38;3.63;;;3.33;;
18857;SDS011;9558;50.178;8.370;2022-08-19T15:25:07;3.97;;;3.58;;
18857;SDS011;9558;50.178;8.370;2022-08-19T15:27:35;5.03;;;3.70;;
18857;SDS011;9558;50.178;8.370;2022-08-19T15:30:05;5.90;;;3.55;;
18857;SDS011;9558;50.178;8.370;2022-08-19T15:32:33;5.32;;;3.53;;
18857;SDS011;9558;50.178;8.370;2022-08-19T15:35:01;5.97;;;3.80;;